sensor_id;sensor_type;location;lat;lon;timestamp;pressure;altitude;pressure_sealevel;temperature;humidity
64889;BME280;51386;53.082;8.816;2023-03-01T00:00:20;103139.84;;;8.80;41.16
64889;BME280;51386;53.082;8.816;2023-03-01T00:02:47;103130.72;;;8.73;41.37
64889;BME280;51386;53.082;8.816;2023-03-01T00:05:14;103134.63;;;8.67;42.15
64889;BME280;51386;53.082;8.816;2023-03-01T00:07:40;103137.13;;;8.69;41.73
64889;BME280;51386;53.082;8.816;2023-03-01T00:10:10;103138.59;;;8.73;41.68
64889;BME280;51386;53.082;8.816;2023-03-01T00:12:37;103139.00;;;8.79;41.59
64889;BME280;51386;53.082;8.816;2023-03-01T00:15:07;103136.31;;;8.81;41.54
64889;BME280;51386;53.082;8.816;2023-03-01T00:17:34;103138.94;;;8.81;41.42
64889;BME280;51386;53.082;8.816;2023-03-01T00:20:01;103124.34;;;8.77;41.36
64889;BME280;51386;53.082;8.816;2023-03-01T00:22:28;103127.69;;;8.79;41.37
64889;BME280;51386;53.082;8.816;2023-03-01T00:24:55;103127.78;;;8.77;41.06
64889;BME280;51386;53.082;8.816;2023-03-01T00:27:22;103126.63;;;8.69;40.85
64889;BME280;51386;53.082;8.816;2023-03-01T00:29:49;103129.94;;;8.58;41.08
64889;BME280;51386;53.082;8.816;2023-03-01T00:32:17;103126.16;;;8.50;41.46
64889;BME280;51386;53.082;8.816;2023-03-01T00:34:44;103123.75;;;8.47;41.96
64889;BME280;51386;53.082;8.816;2023-03-01T00:37:20;103118.72;;;8.44;41.72
64889;BME280;51386;53.082;8.816;2023-03-01T00:39:48;103130.88;;;8.45;42.06
64889;BME280;51386;53.082;8.816;2023-03-01T00:42:16;103117.75;;;8.45;42.30
64889;BME280;51386;53.082;8.816;2023-03-01T00:44:43;103115.88;;;8.47;42.45
64889;BME280;51386;53.082;8.816;2023-03-01T00:47:10;103107.81;;;8.50;41.90
64889;BME280;51386;53.082;8.816;2023-03-01T00:49:38;103123.25;;;8.54;42.08
64889;BME280;51386;53.082;8.816;2023-03-01T00:52:05;103117.13;;;8.54;41.88
64889;BME280;51386;53.082;8.816;2023-03-01T00:54:32;103116.31;;;8.53;42.05
64889;BME280;51386;53.082;8.816;2023-03-01T00:56:59;103114.81;;;8.49;42.22
64889;BME280;51386;53.082;8.816;2023-03-01T00:59:26;103118.41;;;8.48;42.02
64889;BME280;51386;53.082;8.816;2023-03-01T01:01:53;103120.81;;;8.51;42.22
64889;BME280;51386;53.082;8.816;2023-03-01T01:04:20;103114.63;;;8.52;42.05
64889;BME280;51386;53.082;8.816;2023-03-01T01:06:48;103111.91;;;8.54;42.28
64889;BME280;51386;53.082;8.816;2023-03-01T01:09:17;103111.06;;;8.53;42.20
64889;BME280;51386;53.082;8.816;2023-03-01T01:11:45;103108.66;;;8.50;41.93
64889;BME280;51386;53.082;8.816;2023-03-01T01:14:14;103108.72;;;8.49;42.07
64889;BME280;51386;53.082;8.816;2023-03-01T01:16:41;103108.53;;;8.52;42.08
64889;BME280;51386;53.082;8.816;2023-03-01T01:19:09;103114.63;;;8.52;41.76
64889;BME280;51386;53.082;8.816;2023-03-01T01:21:37;103106.09;;;8.49;41.89
64889;BME280;51386;53.082;8.816;2023-03-01T01:24:06;103097.72;;;8.44;42.04
64889;BME280;51386;53.082;8.816;2023-03-01T01:26:33;103101.41;;;8.41;42.22
64889;BME280;51386;53.082;8.816;2023-03-01T01:29:03;103101.47;;;8.40;42.29
64889;BME280;51386;53.082;8.816;2023-03-01T01:31:31;103103.47;;;8.36;42.12
64889;BME280;51386;53.082;8.816;2023-03-01T01:34:00;103096.09;;;8.29;42.03
64889;BME280;51386;53.082;8.816;2023-03-01T01:36:29;103102.56;;;8.23;42.49
64889;BME280;51386;53.082;8.816;2023-03-01T01:38:56;103088.72;;;8.21;42.64
64889;BME280;51386;53.082;8.816;2023-03-01T01:41:27;103085.03;;;8.24;42.35
64889;BME280;51386;53.082;8.816;2023-03-01T01:44:16;103080.53;;;8.26;42.46
64889;BME280;51386;53.082;8.816;2023-03-01T01:46:46;103072.50;;;8.29;42.05
64889;BME280;51386;53.082;8.816;2023-03-01T01:49:29;103073.81;;;8.22;41.85
64889;BME280;51386;53.082;8.816;2023-03-01T01:52:08;103066.66;;;8.11;41.73
64889;BME280;51386;53.082;8.816;2023-03-01T01:54:42;103077.75;;;8.02;42.45
64889;BME280;51386;53.082;8.816;2023-03-01T01:57:18;103073.09;;;7.93;42.23
64889;BME280;51386;53.082;8.816;2023-03-01T01:59:52;103064.06;;;7.84;42.35
64889;BME280;51386;53.082;8.816;2023-03-01T02:02:21;103062.97;;;7.74;42.84
64889;BME280;51386;53.082;8.816;2023-03-01T02:04:49;103058.31;;;7.65;42.67
64889;BME280;51386;53.082;8.816;2023-03-01T02:07:22;103053.66;;;7.56;43.52
64889;BME280;51386;53.082;8.816;2023-03-01T02:09:52;103043.56;;;7.50;43.08
64889;BME280;51386;53.082;8.816;2023-03-01T02:12:24;103052.75;;;7.43;43.69
64889;BME280;51386;53.082;8.816;2023-03-01T02:14:51;103047.88;;;7.37;44.28
64889;BME280;51386;53.082;8.816;2023-03-01T02:17:19;103056.88;;;7.33;44.27
64889;BME280;51386;53.082;8.816;2023-03-01T02:20:03;103054.75;;;7.25;43.95
64889;BME280;51386;53.082;8.816;2023-03-01T02:22:37;103055.13;;;7.19;44.56
64889;BME280;51386;53.082;8.816;2023-03-01T02:25:30;103045.97;;;7.12;44.33
64889;BME280;51386;53.082;8.816;2023-03-01T02:28:10;103042.91;;;7.06;45.22
64889;BME280;51386;53.082;8.816;2023-03-01T02:30:40;103043.09;;;7.03;44.51
64889;BME280;51386;53.082;8.816;2023-03-01T02:33:29;103049.34;;;7.00;45.36
64889;BME280;51386;53.082;8.816;2023-03-01T02:36:01;103049.53;;;6.97;44.98
64889;BME280;51386;53.082;8.816;2023-03-01T02:38:31;103039.25;;;6.94;45.52
64889;BME280;51386;53.082;8.816;2023-03-01T02:41:02;103042.16;;;6.90;45.03
64889;BME280;51386;53.082;8.816;2023-03-01T02:43:32;103052.81;;;6.87;44.99
64889;BME280;51386;53.082;8.816;2023-03-01T02:46:05;103039.16;;;6.81;44.85
64889;BME280;51386;53.082;8.816;2023-03-01T02:48:44;103042.72;;;6.80;46.59
64889;BME280;51386;53.082;8.816;2023-03-01T02:51:26;103041.97;;;6.93;46.91
64889;BME280;51386;53.082;8.816;2023-03-01T02:54:12;103039.16;;;7.10;45.63
64889;BME280;51386;53.082;8.816;2023-03-01T02:56:42;103035.38;;;7.28;45.82
64889;BME280;51386;53.082;8.816;2023-03-01T02:59:10;103043.50;;;7.37;44.76
64889;BME280;51386;53.082;8.816;2023-03-01T03:01:39;103038.19;;;7.39;44.96
64889;BME280;51386;53.082;8.816;2023-03-01T03:04:11;103042.28;;;7.43;45.49
64889;BME280;51386;53.082;8.816;2023-03-01T03:06:44;103035.53;;;7.53;45.18
64889;BME280;51386;53.082;8.816;2023-03-01T03:09:12;103040.34;;;7.59;45.28
64889;BME280;51386;53.082;8.816;2023-03-01T03:11:43;103035.25;;;7.70;44.93
64889;BME280;51386;53.082;8.816;2023-03-01T03:14:12;103027.00;;;7.76;44.49
64889;BME280;51386;53.082;8.816;2023-03-01T03:16:43;103035.72;;;7.77;44.48
64889;BME280;51386;53.082;8.816;2023-03-01T03:19:11;103037.69;;;7.73;44.62
64889;BME280;51386;53.082;8.816;2023-03-01T03:21:38;103042.00;;;7.74;45.07
64889;BME280;51386;53.082;8.816;2023-03-01T03:24:05;103038.41;;;7.75;44.40
64889;BME280;51386;53.082;8.816;2023-03-01T03:26:32;103030.66;;;7.74;44.59
64889;BME280;51386;53.082;8.816;2023-03-01T03:29:00;103031.09;;;7.68;44.67
64889;BME280;51386;53.082;8.816;2023-03-01T03:31:27;103028.72;;;7.63;44.77
64889;BME280;51386;53.082;8.816;2023-03-01T03:33:55;103025.59;;;7.58;44.98
64889;BME280;51386;53.082;8.816;2023-03-01T03:36:24;103018.78;;;7.56;45.20
64889;BME280;51386;53.082;8.816;2023-03-01T03:38:51;103024.31;;;7.51;45.67
64889;BME280;51386;53.082;8.816;2023-03-01T03:41:18;103016.53;;;7.49;45.25
64889;BME280;51386;53.082;8.816;2023-03-01T03:43:45;103013.28;;;7.46;46.19
64889;BME280;51386;53.082;8.816;2023-03-01T03:46:12;103011.78;;;7.42;46.00
64889;BME280;51386;53.082;8.816;2023-03-01T03:48:44;103009.38;;;7.39;46.36
64889;BME280;51386;53.082;8.816;2023-03-01T03:51:15;103003.66;;;7.32;46.06
64889;BME280;51386;53.082;8.816;2023-03-01T03:53:44;103007.41;;;7.28;46.67
64889;BME280;51386;53.082;8.816;2023-03-01T03:56:12;102998.81;;;7.26;46.70
64889;BME280;51386;53.082;8.816;2023-03-01T03:58:39;102991.88;;;7.25;47.22
64889;BME280;51386;53.082;8.816;2023-03-01T04:01:06;102997.97;;;7.26;47.10
64889;BME280;51386;53.082;8.816;2023-03-01T04:03:34;102994.22;;;7.30;46.63
64889;BME280;51386;53.082;8.816;2023-03-01T04:06:03;102988.16;;;7.29;46.52
64889;BME280;51386;53.082;8.816;2023-03-01T04:08:32;102983.94;;;7.27;47.28
64889;BME280;51386;53.082;8.816;2023-03-01T04:11:02;102983.47;;;7.20;47.29
64889;BME280;51386;53.082;8.816;2023-03-01T04:14:07;102984.91;;;7.12;46.59
64889;BME280;51386;53.082;8.816;2023-03-01T04:16:34;102990.56;;;7.06;47.66
64889;BME280;51386;53.082;8.816;2023-03-01T04:19:01;102988.00;;;7.04;47.92
64889;BME280;51386;53.082;8.816;2023-03-01T04:21:28;102989.53;;;7.08;47.53
64889;BME280;51386;53.082;8.816;2023-03-01T04:23:57;102983.31;;;7.09;46.93
64889;BME280;51386;53.082;8.816;2023-03-01T04:26:24;102985.94;;;7.09;46.92
64889;BME280;51386;53.082;8.816;2023-03-01T04:28:51;102983.44;;;7.08;47.98
64889;BME280;51386;53.082;8.816;2023-03-01T04:31:19;102989.69;;;7.05;47.72
64889;BME280;51386;53.082;8.816;2023-03-01T04:33:50;102995.22;;;7.01;47.23
64889;BME280;51386;53.082;8.816;2023-03-01T04:36:20;102984.19;;;6.96;48.52
64889;BME280;51386;53.082;8.816;2023-03-01T04:38:47;102986.81;;;6.96;47.36
64889;BME280;51386;53.082;8.816;2023-03-01T04:41:19;102978.97;;;6.96;47.86
64889;BME280;51386;53.082;8.816;2023-03-01T04:43:47;102977.09;;;6.98;48.04
64889;BME280;51386;53.082;8.816;2023-03-01T04:46:18;102977.75;;;7.01;48.43
64889;BME280;51386;53.082;8.816;2023-03-01T04:48:46;102980.38;;;7.01;47.85
64889;BME280;51386;53.082;8.816;2023-03-01T04:51:16;102971.66;;;7.01;47.74
64889;BME280;51386;53.082;8.816;2023-03-01T04:53:45;102970.72;;;7.02;47.81
64889;BME280;51386;53.082;8.816;2023-03-01T04:56:12;102973.34;;;7.02;47.34
64889;BME280;51386;53.082;8.816;2023-03-01T04:58:42;102971.44;;;7.04;47.52
64889;BME280;51386;53.082;8.816;2023-03-01T05:01:10;102967.72;;;7.08;48.05
64889;BME280;51386;53.082;8.816;2023-03-01T05:03:43;102962.09;;;7.14;47.77
64889;BME280;51386;53.082;8.816;2023-03-01T05:06:11;102966.28;;;7.16;47.17
64889;BME280;51386;53.082;8.816;2023-03-01T05:08:38;102967.13;;;7.17;46.98
64889;BME280;51386;53.082;8.816;2023-03-01T05:11:06;102971.53;;;7.16;47.19
64889;BME280;51386;53.082;8.816;2023-03-01T05:13:37;102964.81;;;7.12;46.63
64889;BME280;51386;53.082;8.816;2023-03-01T05:16:08;102971.25;;;7.07;46.87
64889;BME280;51386;53.082;8.816;2023-03-01T05:18:38;102969.97;;;7.00;46.35
64889;BME280;51386;53.082;8.816;2023-03-01T05:21:09;102966.06;;;6.93;47.44
64889;BME280;51386;53.082;8.816;2023-03-01T05:23:37;102976.81;;;6.88;47.64
64889;BME280;51386;53.082;8.816;2023-03-01T05:26:06;102971.13;;;6.81;47.08
64889;BME280;51386;53.082;8.816;2023-03-01T05:28:37;102971.31;;;6.78;47.65
64889;BME280;51386;53.082;8.816;2023-03-01T05:31:06;102964.66;;;6.73;48.62
64889;BME280;51386;53.082;8.816;2023-03-01T05:33:36;102970.84;;;6.72;48.10
64889;BME280;51386;53.082;8.816;2023-03-01T05:36:06;102968.31;;;6.70;47.93
64889;BME280;51386;53.082;8.816;2023-03-01T05:38:34;102976.38;;;6.67;48.09
64889;BME280;51386;53.082;8.816;2023-03-01T05:41:01;102973.94;;;6.64;48.51
64889;BME280;51386;53.082;8.816;2023-03-01T05:43:31;102975.72;;;6.64;48.78
64889;BME280;51386;53.082;8.816;2023-03-01T05:46:01;102975.81;;;6.62;48.81
64889;BME280;51386;53.082;8.816;2023-03-01T05:48:29;102979.34;;;6.61;48.02
64889;BME280;51386;53.082;8.816;2023-03-01T05:50:59;102974.50;;;6.55;47.82
64889;BME280;51386;53.082;8.816;2023-03-01T05:53:27;102965.25;;;6.50;47.62
64889;BME280;51386;53.082;8.816;2023-03-01T05:55:54;102969.84;;;6.46;48.41
64889;BME280;51386;53.082;8.816;2023-03-01T05:58:21;102973.56;;;6.42;48.71
64889;BME280;51386;53.082;8.816;2023-03-01T06:00:49;102974.56;;;6.40;48.62
64889;BME280;51386;53.082;8.816;2023-03-01T06:03:17;102970.19;;;6.40;48.42
64889;BME280;51386;53.082;8.816;2023-03-01T06:05:46;102986.72;;;6.41;49.48
64889;BME280;51386;53.082;8.816;2023-03-01T06:08:14;102984.22;;;6.39;49.19
64889;BME280;51386;53.082;8.816;2023-03-01T06:10:41;102980.81;;;6.37;48.89
64889;BME280;51386;53.082;8.816;2023-03-01T06:13:08;102984.28;;;6.38;48.25
64889;BME280;51386;53.082;8.816;2023-03-01T06:15:35;102982.34;;;6.41;49.56
64889;BME280;51386;53.082;8.816;2023-03-01T06:18:02;102984.00;;;6.42;49.83
64889;BME280;51386;53.082;8.816;2023-03-01T06:20:29;102984.84;;;6.43;48.80
64889;BME280;51386;53.082;8.816;2023-03-01T06:22:58;102990.94;;;6.43;49.19
64889;BME280;51386;53.082;8.816;2023-03-01T06:25:28;102983.00;;;6.45;49.57
64889;BME280;51386;53.082;8.816;2023-03-01T06:27:55;102988.16;;;6.46;48.31
64889;BME280;51386;53.082;8.816;2023-03-01T06:30:25;102988.88;;;6.48;49.02
64889;BME280;51386;53.082;8.816;2023-03-01T06:32:52;102987.94;;;6.49;48.84
64889;BME280;51386;53.082;8.816;2023-03-01T06:35:19;102978.44;;;6.48;48.72
64889;BME280;51386;53.082;8.816;2023-03-01T06:37:47;102984.56;;;6.47;48.15
64889;BME280;51386;53.082;8.816;2023-03-01T06:40:16;102982.13;;;6.44;48.22
64889;BME280;51386;53.082;8.816;2023-03-01T06:42:49;102976.16;;;6.42;48.82
64889;BME280;51386;53.082;8.816;2023-03-01T06:45:18;102974.41;;;6.43;48.74
64889;BME280;51386;53.082;8.816;2023-03-01T06:47:47;102983.00;;;6.45;48.71
64889;BME280;51386;53.082;8.816;2023-03-01T06:50:16;102979.34;;;6.47;48.98
64889;BME280;51386;53.082;8.816;2023-03-01T06:52:43;102974.13;;;6.47;48.46
64889;BME280;51386;53.082;8.816;2023-03-01T06:55:12;102977.41;;;6.51;48.80
64889;BME280;51386;53.082;8.816;2023-03-01T06:57:40;102980.59;;;6.56;49.07
64889;BME280;51386;53.082;8.816;2023-03-01T07:00:09;102976.00;;;6.59;48.83
64889;BME280;51386;53.082;8.816;2023-03-01T07:02:36;102984.28;;;6.66;48.42
64889;BME280;51386;53.082;8.816;2023-03-01T07:05:04;102984.78;;;6.72;49.01
64889;BME280;51386;53.082;8.816;2023-03-01T07:07:31;102990.47;;;6.79;48.49
64889;BME280;51386;53.082;8.816;2023-03-01T07:09:58;102985.81;;;6.84;48.87
64889;BME280;51386;53.082;8.816;2023-03-01T07:12:25;102997.38;;;6.94;48.13
64889;BME280;51386;53.082;8.816;2023-03-01T07:14:53;102995.69;;;7.07;48.86
64889;BME280;51386;53.082;8.816;2023-03-01T07:17:20;102991.25;;;7.22;48.50
64889;BME280;51386;53.082;8.816;2023-03-01T07:19:47;102984.84;;;7.40;48.32
64889;BME280;51386;53.082;8.816;2023-03-01T07:22:14;102985.13;;;7.62;48.01
64889;BME280;51386;53.082;8.816;2023-03-01T07:24:41;102980.38;;;7.81;47.63
64889;BME280;51386;53.082;8.816;2023-03-01T07:27:09;102986.06;;;8.00;47.01
64889;BME280;51386;53.082;8.816;2023-03-01T07:29:36;102971.91;;;8.15;46.78
64889;BME280;51386;53.082;8.816;2023-03-01T07:32:06;102971.66;;;8.33;46.47
64889;BME280;51386;53.082;8.816;2023-03-01T07:34:33;102982.78;;;8.49;46.28
64889;BME280;51386;53.082;8.816;2023-03-01T07:37:00;102981.53;;;8.67;46.12
64889;BME280;51386;53.082;8.816;2023-03-01T07:39:27;102982.13;;;8.83;45.70
64889;BME280;51386;53.082;8.816;2023-03-01T07:41:54;102988.19;;;8.96;45.49
64889;BME280;51386;53.082;8.816;2023-03-01T07:44:21;102987.75;;;9.02;45.05
64889;BME280;51386;53.082;8.816;2023-03-01T07:46:48;102985.84;;;9.04;44.80
64889;BME280;51386;53.082;8.816;2023-03-01T07:49:16;102984.41;;;9.00;44.85
64889;BME280;51386;53.082;8.816;2023-03-01T07:51:43;102989.66;;;9.00;44.99
64889;BME280;51386;53.082;8.816;2023-03-01T07:54:10;102991.81;;;9.06;44.92
64889;BME280;51386;53.082;8.816;2023-03-01T07:56:37;102986.56;;;9.19;44.72
64889;BME280;51386;53.082;8.816;2023-03-01T07:59:04;102988.19;;;9.32;44.58
64889;BME280;51386;53.082;8.816;2023-03-01T08:01:31;102981.31;;;9.42;44.00
64889;BME280;51386;53.082;8.816;2023-03-01T08:03:58;102973.72;;;9.50;44.55
64889;BME280;51386;53.082;8.816;2023-03-01T08:06:27;102978.06;;;9.63;44.27
64889;BME280;51386;53.082;8.816;2023-03-01T08:08:54;102975.97;;;9.79;43.67
64889;BME280;51386;53.082;8.816;2023-03-01T08:11:25;102974.94;;;9.92;43.79
64889;BME280;51386;53.082;8.816;2023-03-01T08:13:52;102973.53;;;9.99;43.22
64889;BME280;51386;53.082;8.816;2023-03-01T08:16:20;102974.88;;;10.05;42.89
64889;BME280;51386;53.082;8.816;2023-03-01T08:18:47;102975.28;;;10.11;43.28
64889;BME280;51386;53.082;8.816;2023-03-01T08:21:17;102970.28;;;10.19;43.61
64889;BME280;51386;53.082;8.816;2023-03-01T08:23:45;102966.56;;;10.44;42.94
64889;BME280;51386;53.082;8.816;2023-03-01T08:26:16;102970.88;;;10.89;42.21
64889;BME280;51386;53.082;8.816;2023-03-01T08:28:46;102963.56;;;11.47;42.02
64889;BME280;51386;53.082;8.816;2023-03-01T08:31:15;102968.50;;;11.83;40.77
64889;BME280;51386;53.082;8.816;2023-03-01T08:33:43;102965.00;;;12.03;40.43
64889;BME280;51386;53.082;8.816;2023-03-01T08:36:10;102971.09;;;12.24;39.88
64889;BME280;51386;53.082;8.816;2023-03-01T08:38:37;102969.47;;;12.54;39.38
64889;BME280;51386;53.082;8.816;2023-03-01T08:41:05;102967.59;;;12.75;38.54
64889;BME280;51386;53.082;8.816;2023-03-01T08:43:32;102958.59;;;12.87;38.39
64889;BME280;51386;53.082;8.816;2023-03-01T08:45:59;102958.34;;;12.90;38.26
64889;BME280;51386;53.082;8.816;2023-03-01T08:48:27;102960.00;;;12.91;37.52
64889;BME280;51386;53.082;8.816;2023-03-01T08:50:55;102952.25;;;12.99;36.54
64889;BME280;51386;53.082;8.816;2023-03-01T08:53:22;102953.84;;;13.21;36.20
64889;BME280;51386;53.082;8.816;2023-03-01T08:55:49;102957.75;;;13.45;35.78
64889;BME280;51386;53.082;8.816;2023-03-01T08:58:17;102956.78;;;13.85;35.62
64889;BME280;51386;53.082;8.816;2023-03-01T09:00:44;102948.91;;;14.31;34.80
64889;BME280;51386;53.082;8.816;2023-03-01T09:03:11;102936.47;;;14.96;34.22
64889;BME280;51386;53.082;8.816;2023-03-01T09:05:38;102941.59;;;15.77;33.03
64889;BME280;51386;53.082;8.816;2023-03-01T09:08:05;102937.28;;;16.53;31.81
64889;BME280;51386;53.082;8.816;2023-03-01T09:10:37;102935.00;;;17.24;30.44
64889;BME280;51386;53.082;8.816;2023-03-01T09:13:06;102936.38;;;17.93;29.04
64889;BME280;51386;53.082;8.816;2023-03-01T09:15:36;102935.22;;;18.66;28.16
64889;BME280;51386;53.082;8.816;2023-03-01T09:18:10;102936.13;;;19.43;27.76
64889;BME280;51386;53.082;8.816;2023-03-01T09:20:36;102930.84;;;20.09;26.36
64889;BME280;51386;53.082;8.816;2023-03-01T09:23:03;102933.41;;;20.76;25.38
64889;BME280;51386;53.082;8.816;2023-03-01T09:25:30;102931.34;;;21.28;24.86
64889;BME280;51386;53.082;8.816;2023-03-01T09:27:57;102931.72;;;21.68;23.95
64889;BME280;51386;53.082;8.816;2023-03-01T09:30:24;102937.53;;;21.99;23.67
64889;BME280;51386;53.082;8.816;2023-03-01T09:32:53;102933.69;;;22.42;23.00
64889;BME280;51386;53.082;8.816;2023-03-01T09:35:20;102934.75;;;22.88;22.35
64889;BME280;51386;53.082;8.816;2023-03-01T09:37:49;102936.91;;;23.26;21.51
64889;BME280;51386;53.082;8.816;2023-03-01T09:40:20;102936.97;;;23.65;21.20
64889;BME280;51386;53.082;8.816;2023-03-01T09:42:55;102936.75;;;24.12;20.43
64889;BME280;51386;53.082;8.816;2023-03-01T09:45:30;102935.00;;;24.51;20.33
64889;BME280;51386;53.082;8.816;2023-03-01T09:48:03;102938.41;;;24.71;20.12
64889;BME280;51386;53.082;8.816;2023-03-01T09:50:39;102930.06;;;24.92;19.44
64889;BME280;51386;53.082;8.816;2023-03-01T09:53:13;102936.41;;;25.04;19.47
64889;BME280;51386;53.082;8.816;2023-03-01T09:55:46;102933.91;;;25.40;19.21
64889;BME280;51386;53.082;8.816;2023-03-01T09:58:41;102933.16;;;26.01;18.89
64889;BME280;51386;53.082;8.816;2023-03-01T10:01:32;102940.19;;;26.63;17.67
64889;BME280;51386;53.082;8.816;2023-03-01T10:04:30;102938.41;;;27.05;17.27
64889;BME280;51386;53.082;8.816;2023-03-01T10:07:21;102929.00;;;27.48;16.68
64889;BME280;51386;53.082;8.816;2023-03-01T10:09:54;102923.03;;;27.81;16.40
64889;BME280;51386;53.082;8.816;2023-03-01T10:12:25;102918.53;;;27.98;15.93
64889;BME280;51386;53.082;8.816;2023-03-01T10:15:00;102910.94;;;28.07;15.59
64889;BME280;51386;53.082;8.816;2023-03-01T10:17:36;102905.84;;;28.10;15.74
64889;BME280;51386;53.082;8.816;2023-03-01T10:20:23;102915.47;;;28.30;15.75
64889;BME280;51386;53.082;8.816;2023-03-01T10:22:51;102911.44;;;28.32;16.06
64889;BME280;51386;53.082;8.816;2023-03-01T10:25:43;102904.41;;;28.19;15.72
64889;BME280;51386;53.082;8.816;2023-03-01T10:28:20;102909.00;;;27.96;15.84
64889;BME280;51386;53.082;8.816;2023-03-01T10:30:50;102909.41;;;27.99;15.86
64889;BME280;51386;53.082;8.816;2023-03-01T10:33:23;102906.28;;;28.31;15.47
64889;BME280;51386;53.082;8.816;2023-03-01T10:35:52;102909.84;;;28.71;15.58
64889;BME280;51386;53.082;8.816;2023-03-01T10:38:20;102903.88;;;28.86;15.25
64889;BME280;51386;53.082;8.816;2023-03-01T10:40:54;102906.69;;;28.91;15.42
64889;BME280;51386;53.082;8.816;2023-03-01T10:43:25;102899.44;;;28.96;15.29
64889;BME280;51386;53.082;8.816;2023-03-01T10:45:53;102901.91;;;28.81;15.52
64889;BME280;51386;53.082;8.816;2023-03-01T10:48:23;102902.59;;;28.37;15.71
64889;BME280;51386;53.082;8.816;2023-03-01T10:51:06;102901.38;;;27.58;16.26
64889;BME280;51386;53.082;8.816;2023-03-01T10:53:37;102903.19;;;26.63;16.86
64889;BME280;51386;53.082;8.816;2023-03-01T10:56:10;102912.13;;;25.67;17.59
64889;BME280;51386;53.082;8.816;2023-03-01T10:58:39;102901.47;;;24.91;19.03
64889;BME280;51386;53.082;8.816;2023-03-01T11:01:26;102905.03;;;24.28;18.98
64889;BME280;51386;53.082;8.816;2023-03-01T11:04:11;102909.63;;;23.94;20.07
64889;BME280;51386;53.082;8.816;2023-03-01T11:06:43;102907.16;;;23.73;20.39
64889;BME280;51386;53.082;8.816;2023-03-01T11:09:24;102896.44;;;23.60;20.94
64889;BME280;51386;53.082;8.816;2023-03-01T11:11:56;102910.84;;;23.33;21.10
64889;BME280;51386;53.082;8.816;2023-03-01T11:14:26;102906.22;;;22.87;21.43
64889;BME280;51386;53.082;8.816;2023-03-01T11:17:03;102903.75;;;22.79;21.91
64889;BME280;51386;53.082;8.816;2023-03-01T11:19:32;102900.00;;;22.80;22.02
64889;BME280;51386;53.082;8.816;2023-03-01T11:22:04;102890.50;;;22.78;22.26
64889;BME280;51386;53.082;8.816;2023-03-01T11:24:40;102893.19;;;22.78;22.20
64889;BME280;51386;53.082;8.816;2023-03-01T11:27:19;102887.06;;;22.56;22.42
64889;BME280;51386;53.082;8.816;2023-03-01T11:29:55;102880.78;;;22.30;22.54
64889;BME280;51386;53.082;8.816;2023-03-01T11:32:29;102895.03;;;21.96;23.15
64889;BME280;51386;53.082;8.816;2023-03-01T11:35:08;102890.50;;;21.47;23.81
64889;BME280;51386;53.082;8.816;2023-03-01T11:37:46;102897.53;;;21.06;24.87
64889;BME280;51386;53.082;8.816;2023-03-01T11:40:26;102889.38;;;21.14;25.16
64889;BME280;51386;53.082;8.816;2023-03-01T11:43:16;102880.00;;;21.74;24.65
64889;BME280;51386;53.082;8.816;2023-03-01T11:46:06;102883.66;;;22.28;24.09
64889;BME280;51386;53.082;8.816;2023-03-01T11:48:52;102873.75;;;22.69;23.53
64889;BME280;51386;53.082;8.816;2023-03-01T11:51:47;102878.13;;;22.90;23.48
64889;BME280;51386;53.082;8.816;2023-03-01T11:54:33;102877.28;;;22.76;23.55
64889;BME280;51386;53.082;8.816;2023-03-01T11:57:19;102870.09;;;22.36;23.88
64889;BME280;51386;53.082;8.816;2023-03-01T12:00:10;102866.88;;;22.13;24.27
64889;BME280;51386;53.082;8.816;2023-03-01T12:03:11;102862.56;;;22.18;24.34
64889;BME280;51386;53.082;8.816;2023-03-01T12:08:55;102863.91;;;21.74;24.73
64889;BME280;51386;53.082;8.816;2023-03-01T12:11:43;102865.25;;;21.35;25.39
64889;BME280;51386;53.082;8.816;2023-03-01T12:14:50;102855.03;;;21.03;25.45
64889;BME280;51386;53.082;8.816;2023-03-01T12:17:50;102858.19;;;20.71;26.02
64889;BME280;51386;53.082;8.816;2023-03-01T12:20:29;102856.50;;;20.49;26.29
64889;BME280;51386;53.082;8.816;2023-03-01T12:23:28;102850.06;;;19.99;27.07
64889;BME280;51386;53.082;8.816;2023-03-01T12:26:10;102844.69;;;19.55;27.67
64889;BME280;51386;53.082;8.816;2023-03-01T12:29:05;102838.47;;;19.18;28.40
64889;BME280;51386;53.082;8.816;2023-03-01T12:32:03;102841.09;;;19.03;28.48
64889;BME280;51386;53.082;8.816;2023-03-01T12:35:03;102839.19;;;19.34;28.52
64889;BME280;51386;53.082;8.816;2023-03-01T12:37:45;102832.63;;;19.59;27.97
64889;BME280;51386;53.082;8.816;2023-03-01T12:40:46;102825.72;;;19.65;28.21
64889;BME280;51386;53.082;8.816;2023-03-01T12:43:36;102821.47;;;19.71;28.28
64889;BME280;51386;53.082;8.816;2023-03-01T12:46:21;102826.81;;;19.85;28.30
64889;BME280;51386;53.082;8.816;2023-03-01T12:49:04;102819.38;;;19.95;27.57
64889;BME280;51386;53.082;8.816;2023-03-01T12:51:37;102818.22;;;20.19;27.60
64889;BME280;51386;53.082;8.816;2023-03-01T12:54:15;102818.31;;;20.40;27.32
64889;BME280;51386;53.082;8.816;2023-03-01T12:56:43;102811.78;;;20.64;27.04
64889;BME280;51386;53.082;8.816;2023-03-01T12:59:46;102811.94;;;20.77;26.93
64889;BME280;51386;53.082;8.816;2023-03-01T13:02:26;102804.19;;;20.82;26.78
64889;BME280;51386;53.082;8.816;2023-03-01T13:05:22;102799.44;;;20.84;26.65
64889;BME280;51386;53.082;8.816;2023-03-01T13:07:59;102797.03;;;20.89;26.87
64889;BME280;51386;53.082;8.816;2023-03-01T13:10:34;102790.47;;;20.91;27.31
64889;BME280;51386;53.082;8.816;2023-03-01T13:13:19;102789.63;;;21.12;27.07
64889;BME280;51386;53.082;8.816;2023-03-01T13:15:47;102787.78;;;21.40;26.39
64889;BME280;51386;53.082;8.816;2023-03-01T13:18:32;102783.50;;;21.46;25.99
64889;BME280;51386;53.082;8.816;2023-03-01T13:21:04;102783.16;;;21.90;26.12
64889;BME280;51386;53.082;8.816;2023-03-01T13:23:39;102780.81;;;22.14;25.39
64889;BME280;51386;53.082;8.816;2023-03-01T13:26:15;102777.75;;;21.83;25.64